Portada
METAR-TAF:

METAR-TAF

Aeropuertos :

Warrensburg, Misuri, Estados Unidos

latitud: 38-47-03N, longitud: 093-48-10W, altitud: 243 m

Observación

El informe se hizo hace 47 minutos, a las 07:35 UTC
Viento calma
Temperatura 20°C
Humedad 100%
Presión 1015 hPa
Visibilidad: 16.1 km

METAR: KRCM 060735Z AUTO 00000KT 10SM 20/20 A2997 RMK AO2

Hora: 03:22 (08:22 UTC)


TAF: falta

Observaciones y pronósticos meteorológicos de más de 4000 aeropuertos (mensajes METAR y TAF).

Los puntos amarillos y rojos representan las estaciones disponibles.

Ponga el ratón en el punto deseado para ver el nombre de la estación.

Haga clic para ver las observaciones y los pronósticos meteorológicos.

Para cambiar el mapa : haga clic en los botones verdes con una cruz de color negro para hacer un zoom, en el botón verde con un guión para alejar o en las flechas verdes para mapas adyacentes.


METAR-TAF: